createdAt,value
2023-02-05T00:00:15.126Z,5.61
2023-02-05T00:01:14.384Z,5.62
2023-02-05T00:02:15.778Z,5.61
2023-02-05T00:03:13.763Z,5.62
2023-02-05T00:04:13.603Z,5.61
2023-02-05T00:05:13.495Z,5.60
2023-02-05T00:06:13.744Z,5.60
2023-02-05T00:07:13.767Z,5.57
2023-02-05T00:08:14.506Z,5.56
2023-02-05T00:09:13.640Z,5.54
2023-02-05T00:10:12.795Z,5.53
2023-02-05T00:11:14.088Z,5.51
2023-02-05T00:12:13.064Z,5.51
2023-02-05T00:13:14.428Z,5.51
2023-02-05T00:14:13.357Z,5.50
2023-02-05T00:15:12.821Z,5.50
2023-02-05T00:16:13.585Z,5.50
2023-02-05T00:17:14.612Z,5.48
2023-02-05T00:18:13.581Z,5.48
2023-02-05T00:19:13.308Z,5.46
2023-02-05T00:20:13.333Z,5.45
2023-02-05T00:21:13.547Z,5.45
2023-02-05T00:22:13.278Z,5.45
2023-02-05T00:23:13.269Z,5.45
2023-02-05T00:24:13.497Z,5.46
2023-02-05T00:25:13.508Z,5.45
2023-02-05T00:26:13.239Z,5.45
2023-02-05T00:27:13.228Z,5.44
2023-02-05T00:28:14.038Z,5.43
2023-02-05T00:29:12.518Z,5.43
2023-02-05T00:30:13.226Z,5.42
2023-02-05T00:31:14.011Z,5.41
2023-02-05T00:32:12.497Z,5.39
2023-02-05T00:33:12.482Z,5.38
2023-02-05T00:34:13.400Z,5.36
2023-02-05T00:35:14.465Z,5.34
2023-02-05T00:36:13.902Z,5.32
2023-02-05T00:37:14.369Z,5.30
2023-02-05T00:38:12.451Z,5.28
2023-02-05T00:39:12.441Z,5.28
2023-02-05T00:40:14.138Z,5.27
2023-02-05T00:41:12.414Z,5.26
2023-02-05T00:42:12.391Z,5.26
2023-02-05T00:43:12.392Z,5.26
2023-02-05T00:44:13.299Z,5.26
2023-02-05T00:45:13.291Z,5.26
2023-02-05T00:46:13.128Z,5.26
2023-02-05T00:47:13.020Z,5.27
2023-02-05T00:48:13.003Z,5.27
2023-02-05T00:49:13.243Z,5.26
2023-02-05T00:50:12.989Z,5.26
2023-02-05T00:51:12.318Z,5.27
2023-02-05T00:52:12.987Z,5.27
2023-02-05T00:53:12.952Z,5.28
2023-02-05T00:54:12.942Z,5.27
2023-02-05T00:55:12.936Z,5.28
2023-02-05T00:56:13.260Z,5.28
2023-02-05T00:57:12.914Z,5.27
2023-02-05T00:58:13.151Z,5.27
2023-02-05T00:59:13.152Z,5.27
2023-02-05T01:00:13.138Z,5.27
2023-02-05T01:01:13.168Z,5.27
2023-02-05T01:02:12.867Z,5.27
2023-02-05T01:03:12.884Z,5.27
2023-02-05T01:04:13.117Z,5.27
2023-02-05T01:05:12.866Z,5.26
2023-02-05T01:06:13.100Z,5.25
2023-02-05T01:07:12.806Z,5.23
2023-02-05T01:08:13.047Z,5.22
2023-02-05T01:09:12.794Z,5.22
2023-02-05T01:10:13.048Z,5.21
2023-02-05T01:11:13.039Z,5.20
2023-02-05T01:12:12.062Z,5.19
2023-02-05T01:13:12.074Z,5.19
2023-02-05T01:14:12.993Z,5.20
2023-02-05T01:15:12.744Z,5.19
2023-02-05T01:16:13.025Z,5.18
2023-02-05T01:17:12.708Z,5.19
2023-02-05T01:18:12.000Z,5.19
2023-02-05T01:19:12.694Z,5.18
2023-02-05T01:20:11.974Z,5.19
2023-02-05T01:21:12.791Z,5.20
2023-02-05T01:22:12.651Z,5.20
2023-02-05T01:23:12.642Z,5.22
2023-02-05T01:24:11.951Z,5.23
2023-02-05T01:25:12.623Z,5.24
2023-02-05T01:26:11.965Z,5.24
2023-02-05T01:27:12.602Z,5.24
2023-02-05T01:28:12.618Z,5.25
2023-02-05T01:29:12.583Z,5.25
2023-02-05T01:30:12.594Z,5.25
2023-02-05T01:31:11.960Z,5.25
2023-02-05T01:32:12.558Z,5.25
2023-02-05T01:33:12.548Z,5.25
2023-02-05T01:34:11.856Z,5.25
2023-02-05T01:35:11.846Z,5.26
2023-02-05T01:36:13.777Z,5.26
2023-02-05T01:37:11.815Z,5.27
2023-02-05T01:38:11.792Z,5.28
2023-02-05T01:39:11.793Z,5.29
2023-02-05T01:40:12.453Z,5.30
2023-02-05T01:41:11.782Z,5.33
2023-02-05T01:42:11.754Z,5.33
2023-02-05T01:43:12.434Z,5.34
2023-02-05T01:44:12.412Z,5.36
2023-02-05T01:45:12.662Z,5.36
2023-02-05T01:46:12.440Z,5.38
2023-02-05T01:47:12.408Z,5.39
2023-02-05T01:48:12.375Z,5.40
2023-02-05T01:49:12.361Z,5.40
2023-02-05T01:50:12.352Z,5.41
2023-02-05T01:51:12.372Z,5.42
2023-02-05T01:52:12.597Z,5.43
2023-02-05T01:53:12.321Z,5.46
2023-02-05T01:54:12.313Z,5.47
2023-02-05T01:55:12.555Z,5.50
2023-02-05T01:56:11.625Z,5.52
2023-02-05T01:57:12.280Z,5.56
2023-02-05T01:58:12.261Z,5.58
2023-02-05T01:59:12.260Z,5.59
2023-02-05T02:00:11.581Z,5.61
2023-02-05T02:01:12.703Z,5.62
2023-02-05T02:02:12.220Z,5.62
2023-02-05T02:03:12.212Z,5.62
2023-02-05T02:04:12.201Z,5.61
2023-02-05T02:05:12.578Z,5.60
2023-02-05T02:06:11.512Z,5.61
2023-02-05T02:07:12.169Z,5.60
2023-02-05T02:08:12.161Z,5.58
2023-02-05T02:09:11.462Z,5.56
2023-02-05T02:11:24.069Z,5.45
2023-02-05T02:12:23.294Z,5.44
2023-02-05T02:13:23.538Z,5.43
2023-02-05T02:14:23.544Z,5.40
2023-02-05T02:15:23.250Z,5.36
2023-02-05T02:16:23.357Z,5.31
2023-02-05T02:17:23.223Z,5.27
2023-02-05T02:18:23.221Z,5.23
2023-02-05T02:19:22.520Z,5.20
2023-02-05T02:20:23.441Z,5.18
2023-02-05T02:21:23.207Z,5.17
2023-02-05T02:22:23.172Z,5.16
2023-02-05T02:23:23.164Z,5.14
2023-02-05T02:24:23.406Z,5.14
2023-02-05T02:25:23.379Z,5.15
2023-02-05T02:26:23.419Z,5.16
2023-02-05T02:27:23.370Z,5.15
2023-02-05T02:28:23.374Z,5.15
2023-02-05T02:29:23.355Z,5.16
2023-02-05T02:30:24.397Z,5.14
2023-02-05T02:31:23.371Z,5.12
2023-02-05T02:32:23.064Z,5.11
2023-02-05T02:33:23.327Z,5.10
2023-02-05T02:34:23.315Z,5.09
2023-02-05T02:35:22.345Z,5.08
2023-02-05T02:36:23.054Z,5.07
2023-02-05T02:37:23.039Z,5.05
2023-02-05T02:38:23.273Z,5.02
2023-02-05T02:39:22.995Z,4.99
2023-02-05T02:40:22.994Z,4.97
2023-02-05T02:41:22.984Z,4.95
2023-02-05T02:42:23.236Z,4.93
2023-02-05T02:43:22.945Z,4.94
2023-02-05T02:44:22.943Z,4.94
2023-02-05T02:45:23.178Z,4.93
2023-02-05T02:46:22.967Z,4.93
2023-02-05T02:47:22.928Z,4.93
2023-02-05T02:48:23.162Z,4.95
2023-02-05T02:49:22.890Z,4.96
2023-02-05T02:50:22.884Z,4.97
2023-02-05T02:51:23.130Z,4.97
2023-02-05T02:52:22.934Z,4.96
2023-02-05T02:53:22.851Z,4.97
2023-02-05T02:54:22.844Z,4.96
2023-02-05T02:55:23.105Z,4.94
2023-02-05T02:56:22.833Z,4.93
2023-02-05T02:57:22.834Z,4.91
2023-02-05T02:58:22.802Z,4.90
2023-02-05T02:59:22.113Z,4.89
2023-02-05T03:00:22.774Z,4.88
2023-02-05T03:01:22.764Z,4.88
2023-02-05T03:02:23.038Z,4.88
2023-02-05T03:03:22.746Z,4.86
2023-02-05T03:04:22.046Z,4.86
2023-02-05T03:05:22.039Z,4.86
2023-02-05T03:06:22.026Z,4.86
2023-02-05T03:07:22.734Z,4.86
2023-02-05T03:08:24.283Z,4.86
2023-02-05T03:09:24.731Z,4.87
2023-02-05T03:10:21.984Z,4.88
2023-02-05T03:11:22.658Z,4.87
2023-02-05T03:12:21.977Z,4.87
2023-02-05T03:13:21.958Z,4.88
2023-02-05T03:14:21.947Z,4.89
2023-02-05T03:15:21.926Z,4.89
2023-02-05T03:16:21.965Z,4.88
2023-02-05T03:17:21.946Z,4.87
2023-02-05T03:18:22.587Z,4.86
2023-02-05T03:19:22.579Z,4.87
2023-02-05T03:20:21.873Z,4.85
2023-02-05T03:21:21.888Z,4.85
2023-02-05T03:22:21.870Z,4.85
2023-02-05T03:23:22.529Z,4.85
2023-02-05T03:24:21.847Z,4.84
2023-02-05T03:25:22.509Z,4.84
2023-02-05T03:26:22.504Z,4.86
2023-02-05T03:27:22.509Z,4.87
2023-02-05T03:28:22.486Z,4.86
2023-02-05T03:29:22.462Z,4.87
2023-02-05T03:30:21.815Z,4.88
2023-02-05T03:31:22.470Z,4.88
2023-02-05T03:32:21.758Z,4.88
2023-02-05T03:33:21.733Z,4.88
2023-02-05T03:34:21.730Z,4.87
2023-02-05T03:35:21.728Z,4.87
2023-02-05T03:36:22.402Z,4.86
2023-02-05T03:37:22.418Z,4.85
2023-02-05T03:38:22.376Z,4.86
2023-02-05T03:39:21.700Z,4.86
2023-02-05T03:40:21.668Z,4.85
2023-02-05T03:41:22.337Z,4.86
2023-02-05T03:42:22.359Z,4.86
2023-02-05T03:43:22.323Z,4.86
2023-02-05T03:44:22.303Z,4.86
2023-02-05T03:45:22.366Z,4.87
2023-02-05T03:46:22.281Z,4.87
2023-02-05T03:47:21.615Z,4.88
2023-02-05T03:48:22.265Z,4.88
2023-02-05T03:49:22.261Z,4.88
2023-02-05T03:50:21.546Z,4.87
2023-02-05T03:51:22.230Z,4.88
2023-02-05T03:52:21.552Z,4.89
2023-02-05T03:53:22.213Z,4.89
2023-02-05T03:54:22.191Z,4.89
2023-02-05T03:55:22.190Z,4.89
2023-02-05T03:56:22.169Z,4.88
2023-02-05T03:57:22.182Z,4.88
2023-02-05T03:58:22.154Z,4.88
2023-02-05T03:59:21.450Z,4.88
2023-02-05T04:00:21.480Z,4.89
2023-02-05T04:01:22.160Z,4.89
2023-02-05T04:02:22.194Z,4.88
2023-02-05T04:03:22.101Z,4.89
2023-02-05T04:04:21.398Z,4.89
2023-02-05T04:05:21.377Z,4.90
2023-02-05T04:06:22.062Z,4.90
2023-02-05T04:07:22.072Z,4.91
2023-02-05T04:08:21.359Z,4.92
2023-02-05T04:09:21.336Z,4.94
2023-02-05T04:10:21.327Z,4.95
2023-02-05T04:11:22.008Z,4.97
2023-02-05T04:12:21.348Z,5.00
2023-02-05T04:13:21.299Z,5.02
2023-02-05T04:14:21.282Z,5.03
2023-02-05T04:15:21.957Z,5.05
2023-02-05T04:16:21.960Z,5.04
2023-02-05T04:17:21.972Z,5.05
2023-02-05T04:18:21.256Z,5.06
2023-02-05T04:19:21.917Z,5.06
2023-02-05T04:20:21.227Z,5.07
2023-02-05T04:21:21.899Z,5.07
2023-02-05T04:22:22.004Z,5.07
2023-02-05T04:23:21.877Z,5.07
2023-02-05T04:24:21.874Z,5.08
2023-02-05T04:25:21.192Z,5.08
2023-02-05T04:26:21.185Z,5.09
2023-02-05T04:27:21.175Z,5.10
2023-02-05T04:28:21.155Z,5.10
2023-02-05T04:29:21.817Z,5.11
2023-02-05T04:30:21.120Z,5.11
2023-02-05T04:31:21.141Z,5.11
2023-02-05T04:32:21.102Z,5.12
2023-02-05T04:33:21.122Z,5.12
2023-02-05T04:34:21.770Z,5.11
2023-02-05T04:35:21.753Z,5.12
2023-02-05T04:36:21.741Z,5.13
2023-02-05T04:37:21.734Z,5.14
2023-02-05T04:38:21.044Z,5.17
2023-02-05T04:39:21.715Z,5.17
2023-02-05T04:40:21.700Z,5.18
2023-02-05T04:41:21.695Z,5.20
2023-02-05T04:42:21.685Z,5.21
2023-02-05T04:43:21.700Z,5.22
2023-02-05T04:44:21.663Z,5.23
2023-02-05T04:45:21.326Z,5.25
2023-02-05T04:46:21.687Z,5.26
2023-02-05T04:47:21.628Z,5.28
2023-02-05T04:48:21.634Z,5.30
2023-02-05T04:49:21.597Z,5.31
2023-02-05T04:50:21.590Z,5.32
2023-02-05T04:51:21.579Z,5.32
2023-02-05T04:52:21.581Z,5.33
2023-02-05T04:53:21.579Z,5.34
2023-02-05T04:54:21.556Z,5.35
2023-02-05T04:55:21.543Z,5.34
2023-02-05T04:56:21.534Z,5.35
2023-02-05T04:57:21.520Z,5.36
2023-02-05T04:58:21.529Z,5.37
2023-02-05T04:59:21.497Z,5.38
2023-02-05T05:00:20.790Z,5.38
2023-02-05T05:01:20.816Z,5.38
2023-02-05T05:02:21.485Z,5.41
2023-02-05T05:03:21.481Z,5.40
2023-02-05T05:04:21.450Z,5.38
2023-02-05T05:05:20.740Z,5.39
2023-02-05T05:06:20.724Z,5.39
2023-02-05T05:07:21.412Z,5.40
2023-02-05T05:08:21.437Z,5.39
2023-02-05T05:09:21.395Z,5.39
2023-02-05T05:10:21.383Z,5.39
2023-02-05T05:11:20.684Z,5.38
2023-02-05T05:12:20.666Z,5.34
2023-02-05T05:13:20.672Z,5.30
2023-02-05T05:14:21.341Z,5.27
2023-02-05T05:15:21.323Z,5.25
2023-02-05T05:16:21.384Z,5.22
2023-02-05T05:17:20.618Z,5.20
2023-02-05T05:18:21.312Z,5.18
2023-02-05T05:19:21.283Z,5.17
2023-02-05T05:20:21.216Z,5.18
2023-02-05T05:21:20.563Z,5.19
2023-02-05T05:22:21.252Z,5.18
2023-02-05T05:23:21.254Z,5.19
2023-02-05T05:24:20.533Z,5.20
2023-02-05T05:25:20.523Z,5.21
2023-02-05T05:26:21.218Z,5.22
2023-02-05T05:27:20.512Z,5.22
2023-02-05T05:28:21.207Z,5.22
2023-02-05T05:29:20.483Z,5.23
2023-02-05T05:30:21.161Z,5.24
2023-02-05T05:31:21.192Z,5.25
2023-02-05T05:32:20.444Z,5.26
2023-02-05T05:33:21.152Z,5.27
2023-02-05T05:34:21.116Z,5.28
2023-02-05T05:35:21.122Z,5.27
2023-02-05T05:36:20.403Z,5.28
2023-02-05T05:37:21.098Z,5.26
2023-02-05T05:38:21.098Z,5.27
2023-02-05T05:39:21.069Z,5.27
2023-02-05T05:40:21.057Z,5.29
2023-02-05T05:41:20.357Z,5.28
2023-02-05T05:42:20.377Z,5.29
2023-02-05T05:43:20.377Z,5.29
2023-02-05T05:44:22.257Z,5.29
2023-02-05T05:45:20.998Z,5.30
2023-02-05T05:46:21.025Z,5.31
2023-02-05T05:47:20.993Z,5.32
2023-02-05T05:48:20.990Z,5.33
2023-02-05T05:49:20.273Z,5.35
2023-02-05T05:50:20.948Z,5.36
2023-02-05T05:51:20.937Z,5.38
2023-02-05T05:52:20.930Z,5.39
2023-02-05T05:53:20.938Z,5.40
2023-02-05T05:54:20.899Z,5.41
2023-02-05T05:55:20.894Z,5.43
2023-02-05T05:56:21.125Z,5.43
2023-02-05T05:57:20.183Z,5.45
2023-02-05T05:58:20.878Z,5.45
2023-02-05T05:59:20.164Z,5.45
2023-02-05T06:00:20.142Z,5.44
2023-02-05T06:01:20.825Z,5.43
2023-02-05T06:02:20.831Z,5.41
2023-02-05T06:03:20.856Z,5.40
2023-02-05T06:04:20.114Z,5.38
2023-02-05T06:05:20.095Z,5.35
2023-02-05T06:06:20.788Z,5.34
2023-02-05T06:07:20.766Z,5.32
2023-02-05T06:08:20.079Z,5.30
2023-02-05T06:09:20.746Z,5.29
2023-02-05T06:10:20.726Z,5.27
2023-02-05T06:11:20.033Z,5.24
2023-02-05T06:12:20.705Z,5.24
2023-02-05T06:13:20.714Z,5.22
2023-02-05T06:14:20.035Z,5.22
2023-02-05T06:15:19.987Z,5.22
2023-02-05T06:16:20.103Z,5.22
2023-02-05T06:17:20.654Z,5.22
2023-02-05T06:18:23.695Z,5.22
2023-02-05T06:19:21.025Z,5.22
2023-02-05T06:20:20.628Z,5.23
2023-02-05T06:21:19.922Z,5.22
2023-02-05T06:22:19.907Z,5.24
2023-02-05T06:23:20.588Z,5.23
2023-02-05T06:24:20.702Z,5.23
2023-02-05T06:25:20.570Z,5.23
2023-02-05T06:26:20.556Z,5.24
2023-02-05T06:27:20.547Z,5.26
2023-02-05T06:28:20.549Z,5.27
2023-02-05T06:29:19.857Z,5.28
2023-02-05T06:30:20.521Z,5.29
2023-02-05T06:31:20.612Z,5.30
2023-02-05T06:32:20.496Z,5.31
2023-02-05T06:33:20.491Z,5.32
2023-02-05T06:34:20.499Z,5.33
2023-02-05T06:35:20.459Z,5.35
2023-02-05T06:36:20.460Z,5.37
2023-02-05T06:37:19.759Z,5.39
2023-02-05T06:38:20.430Z,5.40
2023-02-05T06:39:20.450Z,5.40
2023-02-05T06:40:19.719Z,5.42
2023-02-05T06:41:19.729Z,5.42
2023-02-05T06:42:20.390Z,5.43
2023-02-05T06:43:19.691Z,5.43
2023-02-05T06:44:19.691Z,5.44
2023-02-05T06:45:19.661Z,5.43
2023-02-05T06:46:19.699Z,5.42
2023-02-05T06:47:20.340Z,5.43
2023-02-05T06:48:20.331Z,5.44
2023-02-05T06:49:20.340Z,5.45
2023-02-05T06:50:20.312Z,5.47
2023-02-05T06:51:19.601Z,5.48
2023-02-05T06:52:19.604Z,5.48
2023-02-05T06:53:20.284Z,5.50
2023-02-05T06:54:20.282Z,5.52
2023-02-05T06:55:19.575Z,5.52
2023-02-05T06:56:20.244Z,5.53
2023-02-05T06:57:20.232Z,5.54
2023-02-05T06:58:19.542Z,5.54
2023-02-05T06:59:19.554Z,5.56
2023-02-05T07:00:20.203Z,5.58
2023-02-05T07:01:20.281Z,5.58
2023-02-05T07:02:19.555Z,5.59
2023-02-05T07:03:19.612Z,5.60
2023-02-05T07:04:19.776Z,5.60
2023-02-05T07:05:20.237Z,5.61
2023-02-05T07:06:19.755Z,5.61
2023-02-05T07:07:20.131Z,5.62
2023-02-05T07:08:20.118Z,5.63
2023-02-05T07:09:20.188Z,5.66
2023-02-05T07:10:20.110Z,5.68
2023-02-05T07:11:20.090Z,5.70
2023-02-05T07:12:20.077Z,5.72
2023-02-05T07:13:19.420Z,5.73
2023-02-05T07:14:20.102Z,5.73
2023-02-05T07:15:20.081Z,5.73
2023-02-05T07:16:19.493Z,5.74
2023-02-05T07:17:20.040Z,5.75
2023-02-05T07:18:20.321Z,5.74
2023-02-05T07:19:19.432Z,5.75
2023-02-05T07:20:19.422Z,5.76
2023-02-05T07:21:19.301Z,5.78
2023-02-05T07:22:19.292Z,5.80
2023-02-05T07:23:19.962Z,5.82
2023-02-05T07:24:20.262Z,5.82
2023-02-05T07:25:19.953Z,5.83
2023-02-05T07:26:19.254Z,5.85
2023-02-05T07:27:19.242Z,5.86
2023-02-05T07:28:19.955Z,5.87
2023-02-05T07:29:19.903Z,5.89
2023-02-05T07:30:19.905Z,5.89
2023-02-05T07:31:20.000Z,5.91
2023-02-05T07:32:19.176Z,5.93
2023-02-05T07:33:19.165Z,5.95
2023-02-05T07:34:19.850Z,5.97
2023-02-05T07:35:19.197Z,5.99
2023-02-05T07:36:19.837Z,6.03
2023-02-05T07:37:21.410Z,6.06
2023-02-05T07:38:19.801Z,6.08
2023-02-05T07:39:19.106Z,6.11
2023-02-05T07:40:20.078Z,6.13
2023-02-05T07:41:19.773Z,6.15
2023-02-05T07:42:19.768Z,6.19
2023-02-05T07:43:19.742Z,6.19
2023-02-05T07:44:19.050Z,6.23
2023-02-05T07:45:19.051Z,6.25
2023-02-05T07:46:19.995Z,6.30
2023-02-05T07:47:19.701Z,6.32
2023-02-05T07:48:19.689Z,6.36
2023-02-05T07:49:19.983Z,6.35
2023-02-05T07:50:19.690Z,6.39
2023-02-05T07:51:19.651Z,6.39
2023-02-05T07:52:19.645Z,6.40
2023-02-05T07:53:19.631Z,6.41
2023-02-05T07:54:19.621Z,6.40
2023-02-05T07:55:19.900Z,6.41
2023-02-05T07:56:18.911Z,6.42
2023-02-05T07:57:18.921Z,6.43
2023-02-05T07:58:19.833Z,6.46
2023-02-05T07:59:19.561Z,6.47
2023-02-05T08:00:19.604Z,6.50
2023-02-05T08:01:19.835Z,6.52
2023-02-05T08:02:19.543Z,6.56
2023-02-05T08:03:19.520Z,6.56
2023-02-05T08:04:19.823Z,6.58
2023-02-05T08:05:19.774Z,6.61
2023-02-05T08:06:19.493Z,6.65
2023-02-05T08:07:19.734Z,6.68
2023-02-05T08:08:19.496Z,6.71
2023-02-05T08:09:19.719Z,6.73
2023-02-05T08:10:19.478Z,6.75
2023-02-05T08:11:19.729Z,6.77
2023-02-05T08:12:19.430Z,6.79
2023-02-05T08:13:18.726Z,6.80
2023-02-05T08:14:19.403Z,6.80
2023-02-05T08:15:18.735Z,6.79
2023-02-05T08:16:19.397Z,6.80
2023-02-05T08:17:19.652Z,6.79
2023-02-05T08:18:18.684Z,6.78
2023-02-05T08:19:18.674Z,6.76
2023-02-05T08:20:19.371Z,6.75
2023-02-05T08:21:19.325Z,6.76
2023-02-05T08:22:19.323Z,6.77
2023-02-05T08:23:19.568Z,6.78
2023-02-05T08:24:18.608Z,6.82
2023-02-05T08:25:19.306Z,6.83
2023-02-05T08:26:19.540Z,6.86
2023-02-05T08:27:19.537Z,6.89
2023-02-05T08:28:19.255Z,6.93
2023-02-05T08:29:19.523Z,6.97
2023-02-05T08:30:19.516Z,7.02
2023-02-05T08:31:18.606Z,7.06
2023-02-05T08:32:18.525Z,7.12
2023-02-05T08:33:19.466Z,7.18
2023-02-05T08:34:20.745Z,7.24
2023-02-05T08:35:19.198Z,7.30
2023-02-05T08:36:19.178Z,7.37
2023-02-05T08:37:18.468Z,7.45
2023-02-05T08:38:19.151Z,7.51
2023-02-05T08:39:19.147Z,7.56
2023-02-05T08:40:19.156Z,7.63
2023-02-05T08:41:19.129Z,7.70
2023-02-05T08:42:18.578Z,7.75
2023-02-05T08:43:18.409Z,7.82
2023-02-05T08:44:18.400Z,7.88
2023-02-05T08:45:19.357Z,7.93
2023-02-05T08:46:19.067Z,7.97
2023-02-05T08:47:19.050Z,8.01
2023-02-05T08:48:19.051Z,8.06
2023-02-05T08:49:19.037Z,8.12
2023-02-05T08:50:18.364Z,8.17
2023-02-05T08:51:19.031Z,8.22
2023-02-05T08:52:19.289Z,8.24
2023-02-05T08:53:18.984Z,8.27
2023-02-05T08:54:18.979Z,8.31
2023-02-05T08:55:18.990Z,8.33
2023-02-05T08:56:20.194Z,8.35
2023-02-05T08:57:18.941Z,8.40
2023-02-05T08:58:18.931Z,8.44
2023-02-05T08:59:18.921Z,8.46
2023-02-05T09:00:19.764Z,8.49
2023-02-05T09:01:19.023Z,8.52
2023-02-05T09:02:18.233Z,8.54
2023-02-05T09:03:18.874Z,8.57
2023-02-05T09:04:18.904Z,8.59
2023-02-05T09:05:18.893Z,8.62
2023-02-05T09:06:18.969Z,8.63
2023-02-05T09:07:18.313Z,8.64
2023-02-05T09:08:18.825Z,8.65
2023-02-05T09:09:23.388Z,8.64
2023-02-05T09:10:18.522Z,8.64
2023-02-05T09:11:18.813Z,8.64
2023-02-05T09:12:19.066Z,8.63
2023-02-05T09:13:19.033Z,8.64
2023-02-05T09:14:18.770Z,8.64
2023-02-05T09:15:18.744Z,8.66
2023-02-05T09:16:18.773Z,8.67
2023-02-05T09:17:18.035Z,8.67
2023-02-05T09:18:18.045Z,8.69
2023-02-05T09:19:18.044Z,8.69
2023-02-05T09:20:18.695Z,8.70
2023-02-05T09:21:18.707Z,8.72
2023-02-05T09:22:18.681Z,8.70
2023-02-05T09:23:18.671Z,8.70
2023-02-05T09:24:18.657Z,8.71
2023-02-05T09:25:17.958Z,8.73
2023-02-05T09:26:18.908Z,8.75
2023-02-05T09:27:17.939Z,8.77
2023-02-05T09:28:18.777Z,8.82
2023-02-05T09:29:17.927Z,8.86
2023-02-05T09:30:18.596Z,8.88
2023-02-05T09:31:18.712Z,8.91
2023-02-05T09:32:18.572Z,8.96
2023-02-05T09:33:18.812Z,9.02
2023-02-05T09:34:17.867Z,9.07
2023-02-05T09:35:17.862Z,9.09
2023-02-05T09:36:18.815Z,9.11
2023-02-05T09:37:18.563Z,9.10
2023-02-05T09:38:17.822Z,9.09
2023-02-05T09:39:36.877Z,9.08
2023-02-05T09:40:21.708Z,9.05
2023-02-05T09:41:19.257Z,9.00
2023-02-05T09:42:18.742Z,8.98
2023-02-05T09:43:18.458Z,8.96
2023-02-05T09:44:18.472Z,8.91
2023-02-05T09:45:18.461Z,8.87
2023-02-05T09:46:17.803Z,8.83
2023-02-05T09:47:18.658Z,8.81
2023-02-05T09:48:18.396Z,8.76
2023-02-05T09:49:18.634Z,8.73
2023-02-05T09:50:18.628Z,8.70
2023-02-05T09:51:19.636Z,8.68
2023-02-05T09:52:18.367Z,8.67
2023-02-05T09:53:18.355Z,8.68
2023-02-05T09:54:18.335Z,8.71
2023-02-05T09:55:18.319Z,8.69
2023-02-05T09:56:17.666Z,8.69
2023-02-05T09:57:17.683Z,8.68
2023-02-05T09:58:17.607Z,8.67
2023-02-05T09:59:18.283Z,8.65
2023-02-05T10:00:18.264Z,8.64
2023-02-05T10:01:18.337Z,8.60
2023-02-05T10:02:18.250Z,8.60
2023-02-05T10:03:17.594Z,8.58
2023-02-05T10:04:17.580Z,8.58
2023-02-05T10:05:18.237Z,8.57
2023-02-05T10:06:18.228Z,8.57
2023-02-05T10:07:17.527Z,8.60
2023-02-05T10:08:18.184Z,8.64
2023-02-05T10:09:18.168Z,8.68
2023-02-05T10:10:17.476Z,8.70
2023-02-05T10:11:17.495Z,8.69
2023-02-05T10:12:17.449Z,8.68
2023-02-05T10:13:18.124Z,8.66
2023-02-05T10:14:18.396Z,8.63
2023-02-05T10:15:17.500Z,8.62
2023-02-05T10:16:17.471Z,8.59
2023-02-05T10:17:17.417Z,8.57
2023-02-05T10:18:18.079Z,8.56
2023-02-05T10:19:18.314Z,8.54
2023-02-05T10:20:18.055Z,8.54
2023-02-05T10:21:17.387Z,8.54
2023-02-05T10:22:17.369Z,8.54
2023-02-05T10:23:18.019Z,8.53
2023-02-05T10:24:17.330Z,8.52
2023-02-05T10:25:17.322Z,8.51
2023-02-05T10:26:17.307Z,8.50
2023-02-05T10:27:18.006Z,8.53
2023-02-05T10:28:17.322Z,8.57
2023-02-05T10:29:17.978Z,8.64
2023-02-05T10:30:17.279Z,8.69
2023-02-05T10:31:17.343Z,8.72
2023-02-05T10:32:17.951Z,8.74
2023-02-05T10:33:17.300Z,8.77
2023-02-05T10:34:17.902Z,8.78
2023-02-05T10:35:17.211Z,8.81
2023-02-05T10:36:17.895Z,8.84
2023-02-05T10:37:17.906Z,8.88
2023-02-05T10:38:17.864Z,8.92
2023-02-05T10:39:17.854Z,8.94
2023-02-05T10:40:17.843Z,8.95
2023-02-05T10:41:17.161Z,9.02
2023-02-05T10:42:17.376Z,9.10
2023-02-05T10:43:17.113Z,9.12
2023-02-05T10:44:17.803Z,9.12
2023-02-05T10:45:19.114Z,9.13
2023-02-05T10:46:17.243Z,9.15
2023-02-05T10:47:17.123Z,9.15
2023-02-05T10:48:17.809Z,9.15
2023-02-05T10:49:17.064Z,9.19
2023-02-05T10:50:17.044Z,9.25
2023-02-05T10:51:17.724Z,9.35
2023-02-05T10:52:17.078Z,9.50
2023-02-05T10:53:17.695Z,9.66
2023-02-05T10:54:17.707Z,9.79
2023-02-05T10:55:17.675Z,9.82
2023-02-05T10:56:16.988Z,9.83
2023-02-05T10:57:16.988Z,9.84
2023-02-05T10:58:16.960Z,9.87
2023-02-05T10:59:17.634Z,9.90
2023-02-05T11:00:17.651Z,9.90
2023-02-05T11:01:17.669Z,9.84
2023-02-05T11:02:16.916Z,9.81
2023-02-05T11:03:17.687Z,9.80
2023-02-05T11:04:17.582Z,9.79
2023-02-05T11:05:17.569Z,9.77
2023-02-05T11:06:17.557Z,9.76
2023-02-05T11:07:17.549Z,9.80
2023-02-05T11:08:17.557Z,9.84
2023-02-05T11:09:17.581Z,9.87
2023-02-05T11:10:17.526Z,9.91
2023-02-05T11:11:17.499Z,10.01
2023-02-05T11:12:17.499Z,10.11
2023-02-05T11:13:17.506Z,10.15
2023-02-05T11:14:17.467Z,10.16
2023-02-05T11:15:17.459Z,10.15
2023-02-05T11:16:17.513Z,10.13
2023-02-05T11:17:17.455Z,10.12
2023-02-05T11:18:17.448Z,10.13
2023-02-05T11:19:17.982Z,10.13
2023-02-05T11:20:16.727Z,10.10
2023-02-05T11:21:17.399Z,10.04
2023-02-05T11:22:17.387Z,9.99
2023-02-05T11:23:16.708Z,9.93
2023-02-05T11:24:17.358Z,9.91
2023-02-05T11:25:16.668Z,9.89
2023-02-05T11:26:17.348Z,9.85
2023-02-05T11:27:17.337Z,9.84
2023-02-05T11:28:17.648Z,9.80
2023-02-05T11:29:17.325Z,9.78
2023-02-05T11:30:17.809Z,9.74
2023-02-05T11:31:16.642Z,9.70
2023-02-05T11:32:16.664Z,9.65
2023-02-05T11:33:16.617Z,9.59
2023-02-05T11:34:17.313Z,9.51
2023-02-05T11:35:16.553Z,9.42
2023-02-05T11:36:16.569Z,9.35
2023-02-05T11:37:16.552Z,9.28
2023-02-05T11:38:16.552Z,9.21
2023-02-05T11:39:17.210Z,9.18
2023-02-05T11:40:16.531Z,9.14
2023-02-05T11:41:16.510Z,9.10
2023-02-05T11:42:16.485Z,9.09
2023-02-05T11:43:17.190Z,9.06
2023-02-05T11:44:17.405Z,9.03
2023-02-05T11:45:17.133Z,8.98
2023-02-05T11:46:16.497Z,8.93
2023-02-05T11:47:16.438Z,8.88
2023-02-05T11:48:17.104Z,8.85
2023-02-05T11:49:16.434Z,8.81
2023-02-05T11:50:18.738Z,8.77
2023-02-05T11:51:17.073Z,8.77
2023-02-05T11:52:17.328Z,8.74
2023-02-05T11:53:16.536Z,8.72
2023-02-05T11:54:17.076Z,8.69
2023-02-05T11:55:16.355Z,8.68
2023-02-05T11:56:17.026Z,8.67
2023-02-05T11:57:17.282Z,8.67
2023-02-05T11:58:18.502Z,8.65
2023-02-05T11:59:18.014Z,8.63
2023-02-05T12:00:16.357Z,8.58
2023-02-05T12:01:16.298Z,8.55
2023-02-05T12:02:16.959Z,8.52
2023-02-05T12:03:16.334Z,8.50
2023-02-05T12:04:16.286Z,8.48
2023-02-05T12:05:16.936Z,8.45
2023-02-05T12:06:16.232Z,8.42
2023-02-05T12:07:16.902Z,8.40
2023-02-05T12:08:16.890Z,8.37
2023-02-05T12:09:16.923Z,8.34
2023-02-05T12:10:16.243Z,8.32
2023-02-05T12:11:16.183Z,8.28
2023-02-05T12:12:16.171Z,8.26
2023-02-05T12:13:16.843Z,8.23
2023-02-05T12:14:16.842Z,8.20
2023-02-05T12:15:16.163Z,8.16
2023-02-05T12:16:16.869Z,8.15
2023-02-05T12:17:16.102Z,8.12
2023-02-05T12:18:16.784Z,8.10
2023-02-05T12:19:16.144Z,8.07
2023-02-05T12:20:16.143Z,8.05
2023-02-05T12:21:16.757Z,8.03
2023-02-05T12:22:16.068Z,8.00
2023-02-05T12:23:16.725Z,7.97
2023-02-05T12:24:16.744Z,7.94
2023-02-05T12:25:16.020Z,7.93
2023-02-05T12:26:16.705Z,7.93
2023-02-05T12:27:16.688Z,7.92
2023-02-05T12:28:16.811Z,7.90
2023-02-05T12:29:17.003Z,7.89
2023-02-05T12:30:16.103Z,7.90
2023-02-05T12:31:16.711Z,7.91
2023-02-05T12:32:15.943Z,7.93
2023-02-05T12:33:16.315Z,7.94
2023-02-05T12:34:16.011Z,7.96
2023-02-05T12:35:16.682Z,7.98
2023-02-05T12:36:16.675Z,8.02
2023-02-05T12:37:16.587Z,8.05
2023-02-05T12:38:21.083Z,8.07
2023-02-05T12:39:16.898Z,8.08
2023-02-05T12:40:16.027Z,8.09
2023-02-05T12:41:15.854Z,8.09
2023-02-05T12:42:17.552Z,8.09
2023-02-05T12:43:16.651Z,8.07
2023-02-05T12:44:16.531Z,8.05
2023-02-05T12:45:15.843Z,8.05
2023-02-05T12:46:16.531Z,8.06
2023-02-05T12:47:16.480Z,8.10
2023-02-05T12:48:15.771Z,8.13
2023-02-05T12:49:16.477Z,8.16
2023-02-05T12:50:16.434Z,8.16
2023-02-05T12:51:16.790Z,8.21
2023-02-05T12:52:16.612Z,8.23
2023-02-05T12:53:15.742Z,8.26
2023-02-05T12:54:15.736Z,8.32
2023-02-05T12:55:15.731Z,8.37
2023-02-05T12:56:16.699Z,8.43
2023-02-05T12:57:16.378Z,8.47
2023-02-05T12:58:16.352Z,8.54
2023-02-05T12:59:15.684Z,8.59
2023-02-05T13:00:16.583Z,8.64
2023-02-05T13:01:15.640Z,8.66
2023-02-05T13:02:16.299Z,8.67
2023-02-05T13:03:16.294Z,8.68
2023-02-05T13:04:16.378Z,8.69
2023-02-05T13:05:16.269Z,8.71
2023-02-05T13:06:16.260Z,8.75
2023-02-05T13:07:16.517Z,8.81
2023-02-05T13:08:16.237Z,8.86
2023-02-05T13:09:16.248Z,8.92
2023-02-05T13:10:16.467Z,8.95
2023-02-05T13:11:17.461Z,8.96
2023-02-05T13:12:16.197Z,8.97
2023-02-05T13:13:16.459Z,8.99
2023-02-05T13:14:16.239Z,9.00
2023-02-05T13:15:15.482Z,8.99
2023-02-05T13:16:15.504Z,9.00
2023-02-05T13:17:15.462Z,9.04
2023-02-05T13:18:16.131Z,9.07
2023-02-05T13:19:16.161Z,9.11